This is the latest recevied weather packets stored in our database for station/object SP9EPI-13. If no packets are shown the sender has not sent any weather packets the latest 10 day(s).
| Time | Temp. | Humidity | Pressure | Rain* | Wind** | Luminosity | Snow |
|---|---|---|---|---|---|---|---|
| 1777720200 | 21.11° C | 40% | 1019.9 hPa | - | - | - | - |
| 1777719600 | 21.11° C | 40% | 1019.9 hPa | - | - | - | - |
| 1777719001 | 21.11° C | 41% | 1019.9 hPa | - | - | - | - |
| 1777718401 | 21.11° C | 41% | 1019.9 hPa | - | - | - | - |
| 1777717801 | 20° C | 41% | 1019.9 hPa | - | - | - | - |
| 1777717200 | 20° C | 43% | 1019.9 hPa | - | - | - | - |
| 1777716600 | 20° C | 44% | 1020.3 hPa | - | - | - | - |
| 1777716001 | 21.11° C | 44% | 1020.3 hPa | - | - | - | - |
| 1777715401 | 18.89° C | 57% | 1020.3 hPa | - | - | - | - |
| 1777714800 | 20° C | 58% | 1020.3 hPa | - | - | - | - |
| 1777714201 | 18.89° C | 60% | 1020.3 hPa | - | - | - | - |
| 1777713601 | 0° C | 100% | 0 hPa | - | - | - | - |
| 1777713000 | 18.89° C | 58% | 1020.6 hPa | - | - | - | - |
| 1777712400 | 18.89° C | 61% | 1020.6 hPa | - | - | - | - |
| 1777711801 | 20° C | 64% | 1020.6 hPa | - | - | - | - |
| 1777711200 | 18.89° C | 65% | 1020.6 hPa | - | - | - | - |
| 1777710600 | 18.89° C | 65% | 1020.6 hPa | - | - | - | - |
| 1777710000 | 18.89° C | 70% | 1021 hPa | - | - | - | - |
| 1777709401 | 18.89° C | 69% | 1021 hPa | - | - | - | - |
| 1777708800 | 17.78° C | 70% | 1021 hPa | - | - | - | - |
| 1777708201 | 17.78° C | 72% | 1021 hPa | - | - | - | - |
| 1777707600 | 17.78° C | 73% | 1021 hPa | - | - | - | - |
| 1777707001 | 17.22° C | 74% | 1021 hPa | - | - | - | - |
| 1777706400 | 17.22° C | 74% | 1021 hPa | - | - | - | - |
| 1777705801 | 16.11° C | 77% | 1021 hPa | - | - | - | - |
* Rain since midnight (hover to see other rain measurements)
** Current wind speed in m/s (hover to see current wind gust speed)